TAF Text Data
IDs:
Format:
Raw Decoded Include METAR

Data at: 1320 UTC 17 Dec 2018

KGCN 171254Z 07003KT 10SM OVC100 M04/M08 A3024 RMK AO2 SLP242 T10391078

KGCN 171120Z 1712/1812 VRB03KT P6SM SCT100 BKN200
  FM171800 21010KT P6SM OVC090
  FM172200 24011KT P6SM BKN050 OVC080
  FM180100 VRB03KT P6SM SCT050 OVC080
  FM180600 VRB03KT P6SM FEW050